This is the latest recevied weather packets stored in our database for station/object WS2Z. If no packets are shown the sender has not sent any weather packets the latest 10 day(s).
| Time | Temp. | Humidity | Pressure | Rain* | Wind** | Luminosity | Snow |
|---|---|---|---|---|---|---|---|
| 1777405723 | 33.33° C | 38% | 1017 hPa | 0 mm | - | 677 W/m² | - |
| 1777405419 | 32.78° C | 40% | 1017.2 hPa | 0 mm | - | 673 W/m² | - |
| 1777405116 | 33.33° C | 39% | 1017.1 hPa | 0 mm | - | 666 W/m² | - |
| 1777404815 | 32.78° C | 40% | 1017.1 hPa | 0 mm | - | 701 W/m² | - |
| 1777404512 | 32.22° C | 41% | 1017.2 hPa | 0 mm | - | 716 W/m² | - |
| 1777404207 | 32.22° C | 40% | 1017.3 hPa | 0 mm | - | 739 W/m² | - |
| 1777403904 | 31.67° C | 41% | 1017.2 hPa | 0 mm | - | 763 W/m² | - |
| 1777403603 | 32.22° C | 40% | 1017.5 hPa | 0 mm | - | 772 W/m² | - |
| 1777403298 | 32.78° C | 39% | 1017.6 hPa | 0 mm | - | 765 W/m² | - |
| 1777402993 | 32.78° C | 39% | 1017.6 hPa | 0 mm | - | 785 W/m² | - |
| 1777402689 | 32.22° C | 39% | 1017.7 hPa | 0 mm | - | 792 W/m² | - |
| 1777402388 | 31.67° C | 40% | 1017.8 hPa | 0 mm | - | 831 W/m² | - |
| 1777402086 | 31.11° C | 44% | 1018 hPa | 0 mm | - | 897 W/m² | - |
| 1777401781 | 31.67° C | 44% | 1017.8 hPa | 0 mm | - | 211 W/m² | - |
| 1777401476 | 32.22° C | 41% | 1017.9 hPa | 0 mm | - | 226 W/m² | - |
| 1777401172 | 31.67° C | 40% | 1017.9 hPa | 0 mm | - | 887 W/m² | - |
| 1777400868 | 31.11° C | 40% | 1018.1 hPa | 0 mm | - | 862 W/m² | - |
| 1777400565 | 31.11° C | 43% | 1018 hPa | 0 mm | - | 836 W/m² | - |
| 1777400262 | 31.67° C | 44% | 1018 hPa | 0 mm | - | 181 W/m² | - |
| 1777399958 | 31.11° C | 47% | 1018.2 hPa | 0 mm | - | 903 W/m² | - |
| 1777399655 | 31.11° C | 43% | 1018.3 hPa | 0 mm | - | 900 W/m² | - |
| 1777399352 | 30.56° C | 46% | 1018.2 hPa | 0 mm | - | 977 W/m² | - |
| 1777399050 | 31.67° C | 44% | 1018.3 hPa | 0 mm | - | 199 W/m² | - |
| 1777398746 | 31.11° C | 44% | 1018.3 hPa | 0 mm | - | 917 W/m² | - |
| 1777398444 | 30.56° C | 43% | 1018.6 hPa | 0 mm | - | 922 W/m² | - |
* Rain latest hour (hover to see other rain measurements)
** Current wind speed in m/s (hover to see current wind gust speed)